createdAt,value
2019-05-07T00:01:42.330Z,4.00
2019-05-07T00:04:13.031Z,3.90
2019-05-07T00:06:44.059Z,3.90
2019-05-07T00:09:15.710Z,3.90
2019-05-07T00:11:46.674Z,3.70
2019-05-07T00:14:17.609Z,3.60
2019-05-07T00:16:48.568Z,3.60
2019-05-07T00:19:19.725Z,3.40
2019-05-07T00:21:52.741Z,3.40
2019-05-07T00:24:23.391Z,3.20
2019-05-07T00:26:54.360Z,3.20
2019-05-07T00:29:26.306Z,3.10
2019-05-07T00:31:57.271Z,3.00
2019-05-07T00:34:29.780Z,2.90
2019-05-07T00:37:02.647Z,2.90
2019-05-07T00:39:38.151Z,2.90
2019-05-07T00:42:21.459Z,3.00
2019-05-07T00:45:14.090Z,3.20
2019-05-07T00:47:33.115Z,3.10
2019-05-07T00:50:07.860Z,3.10
2019-05-07T00:52:38.882Z,3.20
2019-05-07T00:55:11.970Z,3.30
2019-05-07T00:57:42.927Z,3.20
2019-05-07T01:00:14.025Z,3.20
2019-05-07T01:02:45.015Z,3.20
2019-05-07T01:05:16.160Z,3.10
2019-05-07T01:07:47.128Z,2.90
2019-05-07T01:10:18.052Z,2.80
2019-05-07T01:12:49.017Z,2.80
2019-05-07T01:15:30.369Z,2.70
2019-05-07T01:17:52.608Z,2.80
2019-05-07T01:20:23.653Z,2.70
2019-05-07T01:22:54.855Z,2.60
2019-05-07T01:25:25.926Z,2.60
2019-05-07T01:27:56.893Z,2.70
2019-05-07T01:30:27.836Z,2.70
2019-05-07T01:33:06.345Z,2.60
2019-05-07T01:35:43.149Z,2.60
2019-05-07T01:38:15.877Z,2.60
2019-05-07T01:40:46.815Z,2.40
2019-05-07T01:43:18.842Z,2.40
2019-05-07T01:45:52.886Z,2.40
2019-05-07T01:48:23.181Z,2.50
2019-05-07T01:50:54.147Z,2.40
2019-05-07T01:53:25.121Z,2.40
2019-05-07T01:55:56.053Z,2.40
2019-05-07T01:58:27.013Z,2.40
2019-05-07T02:00:57.946Z,2.40
2019-05-07T02:03:32.640Z,2.30
2019-05-07T02:06:04.680Z,2.30
2019-05-07T02:08:53.331Z,2.00
2019-05-07T02:11:26.037Z,1.80
2019-05-07T02:13:57.007Z,1.80
2019-05-07T02:16:27.945Z,1.70
2019-05-07T02:18:58.930Z,1.50
2019-05-07T02:21:29.864Z,1.50
2019-05-07T02:24:00.800Z,1.60
2019-05-07T02:26:32.162Z,1.80
2019-05-07T02:29:03.497Z,2.10
2019-05-07T02:31:34.472Z,2.20
2019-05-07T02:34:05.407Z,2.00
2019-05-07T02:36:37.292Z,2.00
2019-05-07T02:39:12.999Z,1.70
2019-05-07T02:41:44.570Z,1.50
2019-05-07T02:44:15.616Z,1.50
2019-05-07T02:46:52.781Z,1.30
2019-05-07T02:49:25.536Z,1.10
2019-05-07T02:51:58.088Z,0.90
2019-05-07T02:54:32.886Z,0.80
2019-05-07T02:57:03.505Z,0.60
2019-05-07T02:59:35.490Z,0.60
2019-05-07T03:02:06.524Z,0.60
2019-05-07T03:04:37.472Z,0.50
2019-05-07T03:07:08.444Z,0.40
2019-05-07T03:09:42.811Z,0.30
2019-05-07T03:12:13.428Z,0.20
2019-05-07T03:14:44.485Z,0.10
2019-05-07T03:17:17.032Z,0.00
2019-05-07T03:19:49.644Z,0.00
2019-05-07T03:22:23.247Z,-0.10
2019-05-07T03:24:57.726Z,0.00
2019-05-07T03:27:28.731Z,-0.10
2019-05-07T03:30:04.638Z,-0.10
2019-05-07T03:32:39.291Z,-0.10
2019-05-07T03:35:27.968Z,-0.10
2019-05-07T03:38:03.489Z,-0.10
2019-05-07T03:40:34.961Z,-0.20
2019-05-07T03:43:06.948Z,-0.20
2019-05-07T03:45:48.841Z,-0.20
2019-05-07T03:48:23.865Z,-0.20
2019-05-07T03:50:53.982Z,-0.30
2019-05-07T03:53:25.042Z,-0.40
2019-05-07T03:55:55.983Z,-0.40
2019-05-07T03:58:27.022Z,-0.50
2019-05-07T04:00:57.968Z,-0.50
2019-05-07T04:03:28.956Z,-0.40
2019-05-07T04:05:59.916Z,-0.40
2019-05-07T04:08:33.520Z,-0.40
2019-05-07T04:11:04.153Z,-0.40
2019-05-07T04:13:36.322Z,-0.40
2019-05-07T04:16:07.335Z,-0.40
2019-05-07T04:18:38.332Z,-0.40
2019-05-07T04:21:09.325Z,-0.40
2019-05-07T04:23:43.290Z,-0.30
2019-05-07T04:26:26.825Z,-0.30
2019-05-07T04:29:05.560Z,-0.20
2019-05-07T04:31:36.390Z,-0.20
2019-05-07T04:34:13.378Z,-0.10
2019-05-07T04:36:46.249Z,0.00
2019-05-07T04:39:17.241Z,0.20
2019-05-07T04:41:48.242Z,0.40
2019-05-07T04:44:19.218Z,0.40
2019-05-07T04:46:53.119Z,0.60
2019-05-07T04:49:23.885Z,1.10
2019-05-07T04:52:05.620Z,1.50
2019-05-07T04:54:36.588Z,1.60
2019-05-07T04:57:09.123Z,1.70
2019-05-07T04:59:42.749Z,1.70
2019-05-07T05:02:14.340Z,1.80
2019-05-07T05:04:45.307Z,1.80
2019-05-07T05:07:17.842Z,2.10
2019-05-07T05:09:48.878Z,2.10
2019-05-07T05:12:19.838Z,2.10
2019-05-07T05:14:52.456Z,2.10
2019-05-07T05:17:23.495Z,2.00
2019-05-07T05:19:54.457Z,2.00
2019-05-07T05:22:42.487Z,2.10
2019-05-07T05:25:18.304Z,2.20
2019-05-07T05:27:49.291Z,2.40
2019-05-07T05:30:23.077Z,2.60
2019-05-07T05:32:54.033Z,2.70
2019-05-07T05:35:25.011Z,2.80
2019-05-07T05:37:56.007Z,2.90
2019-05-07T05:40:26.979Z,3.10
2019-05-07T05:42:57.648Z,3.10
2019-05-07T05:45:36.366Z,3.20
2019-05-07T05:48:08.838Z,3.50
2019-05-07T05:50:42.375Z,3.70
2019-05-07T05:53:13.042Z,4.00
2019-05-07T05:55:44.457Z,4.30
2019-05-07T05:58:35.424Z,4.20
2019-05-07T06:01:24.184Z,4.30
2019-05-07T06:03:56.723Z,4.40
2019-05-07T06:06:35.198Z,4.50
2019-05-07T06:09:08.633Z,4.70
2019-05-07T06:11:57.495Z,4.80
2019-05-07T06:14:36.046Z,5.10
2019-05-07T06:17:24.663Z,5.30
2019-05-07T06:19:57.190Z,5.30
2019-05-07T06:22:27.824Z,5.40
2019-05-07T06:25:02.370Z,5.60
2019-05-07T06:27:33.018Z,5.80
2019-05-07T06:30:04.996Z,5.90
2019-05-07T06:32:36.143Z,6.00
2019-05-07T06:35:08.318Z,6.20
2019-05-07T06:37:39.249Z,6.30
2019-05-07T06:40:29.502Z,6.40
2019-05-07T06:43:06.051Z,6.70
2019-05-07T06:45:42.273Z,7.00
2019-05-07T06:48:17.260Z,6.90
2019-05-07T06:50:57.744Z,7.10
2019-05-07T06:53:33.387Z,7.30
2019-05-07T06:56:04.585Z,7.40
2019-05-07T06:58:52.762Z,7.60
2019-05-07T07:01:34.478Z,7.80
2019-05-07T07:04:16.039Z,7.70
2019-05-07T07:06:46.676Z,7.70
2019-05-07T07:09:35.623Z,7.90
2019-05-07T07:12:24.017Z,7.80
2019-05-07T07:14:53.136Z,8.00
2019-05-07T07:17:24.078Z,8.00
2019-05-07T07:19:55.060Z,8.00
2019-05-07T07:22:26.028Z,8.00
2019-05-07T07:24:56.984Z,8.20
2019-05-07T07:27:27.946Z,8.20
2019-05-07T07:30:02.297Z,8.20
2019-05-07T07:32:42.496Z,8.40
2019-05-07T07:35:14.839Z,8.40
2019-05-07T07:37:45.775Z,8.40
2019-05-07T07:40:17.446Z,8.40
2019-05-07T07:42:49.453Z,8.80
2019-05-07T07:45:22.813Z,9.00
2019-05-07T07:47:53.197Z,9.10
2019-05-07T07:50:24.231Z,9.40
2019-05-07T07:52:55.201Z,9.40
2019-05-07T07:55:27.731Z,9.80
2019-05-07T07:58:15.295Z,10.10
2019-05-07T08:00:47.837Z,10.40
2019-05-07T08:03:18.809Z,10.50
2019-05-07T08:05:51.759Z,10.60
2019-05-07T08:08:22.423Z,10.90
2019-05-07T08:10:53.559Z,11.40
2019-05-07T08:13:24.556Z,11.70
2019-05-07T08:15:55.577Z,11.90
2019-05-07T08:18:26.589Z,11.50
2019-05-07T08:20:57.574Z,11.30
2019-05-07T08:23:28.532Z,11.50
2019-05-07T08:25:59.471Z,11.50
2019-05-07T08:28:31.973Z,11.70
2019-05-07T08:31:04.735Z,11.60
2019-05-07T08:33:51.802Z,11.90
2019-05-07T08:36:22.832Z,12.10
2019-05-07T08:38:55.204Z,12.40
2019-05-07T08:41:28.252Z,13.00
2019-05-07T08:44:11.450Z,13.40
2019-05-07T08:46:36.196Z,12.90
2019-05-07T08:49:08.739Z,13.00
2019-05-07T08:51:39.686Z,13.00
2019-05-07T08:54:12.333Z,13.10
2019-05-07T08:56:43.628Z,13.30
2019-05-07T08:59:14.700Z,13.60
2019-05-07T09:01:45.673Z,13.80
2019-05-07T09:04:16.622Z,14.20
2019-05-07T09:06:47.677Z,14.40
2019-05-07T09:09:18.676Z,14.80
2019-05-07T09:11:51.764Z,15.20
2019-05-07T09:14:25.777Z,15.40
2019-05-07T09:16:55.083Z,15.50
2019-05-07T09:19:26.032Z,16.00
2019-05-07T09:21:58.012Z,16.10
2019-05-07T09:24:28.968Z,16.20
2019-05-07T09:27:13.820Z,16.40
2019-05-07T09:29:44.463Z,16.60
2019-05-07T09:32:17.015Z,16.40
2019-05-07T09:34:49.530Z,16.30
2019-05-07T09:37:22.661Z,16.00
2019-05-07T09:39:53.785Z,16.00
2019-05-07T09:42:24.773Z,16.20
2019-05-07T09:44:55.710Z,16.10
2019-05-07T09:47:26.680Z,14.80
2019-05-07T09:50:04.763Z,14.90
2019-05-07T09:52:32.134Z,15.40
2019-05-07T09:55:13.830Z,16.80
2019-05-07T09:57:35.641Z,18.10
2019-05-07T10:00:12.360Z,19.00
2019-05-07T10:02:43.476Z,19.30
2019-05-07T10:05:14.917Z,19.70
2019-05-07T10:07:45.890Z,20.60
2019-05-07T10:10:17.035Z,21.10
2019-05-07T10:13:01.976Z,21.60
2019-05-07T10:15:33.295Z,21.80
2019-05-07T10:18:12.537Z,22.20
2019-05-07T10:20:43.759Z,21.70
2019-05-07T10:23:22.918Z,21.40
2019-05-07T10:25:55.116Z,21.00
2019-05-07T10:28:26.294Z,21.20
2019-05-07T10:30:57.243Z,21.80
2019-05-07T10:33:28.220Z,21.70
2019-05-07T10:35:59.160Z,22.10
2019-05-07T10:38:30.155Z,23.10
2019-05-07T10:41:02.852Z,23.60
2019-05-07T10:43:34.056Z,23.40
2019-05-07T10:46:21.645Z,23.40
2019-05-07T10:48:56.665Z,23.90
2019-05-07T10:51:27.604Z,24.90
2019-05-07T10:53:58.677Z,23.20
2019-05-07T10:56:29.622Z,22.60
2019-05-07T10:59:02.895Z,23.60
2019-05-07T11:01:35.992Z,24.20
2019-05-07T11:04:06.965Z,25.10
2019-05-07T11:06:37.913Z,25.80
2019-05-07T11:09:09.985Z,25.90
2019-05-07T11:11:42.344Z,26.80
2019-05-07T11:14:13.592Z,28.10
2019-05-07T11:16:46.100Z,27.80
2019-05-07T11:19:18.931Z,28.10
2019-05-07T11:21:49.708Z,28.10
2019-05-07T11:24:20.681Z,27.30
2019-05-07T11:26:53.154Z,25.30
2019-05-07T11:29:24.243Z,24.70
2019-05-07T11:31:55.226Z,25.20
2019-05-07T11:34:27.174Z,23.20
2019-05-07T11:36:58.152Z,21.60
2019-05-07T11:39:29.093Z,21.30
2019-05-07T11:42:04.449Z,21.90
2019-05-07T11:44:35.388Z,23.20
2019-05-07T11:47:06.058Z,24.60
2019-05-07T11:49:52.468Z,26.00
2019-05-07T11:52:25.131Z,26.60
2019-05-07T11:54:56.066Z,25.80
2019-05-07T11:57:27.036Z,26.10
2019-05-07T11:59:57.977Z,26.20
2019-05-07T12:02:28.944Z,27.60
2019-05-07T12:05:01.838Z,28.30
2019-05-07T12:07:32.823Z,27.40
2019-05-07T12:10:07.658Z,26.00
2019-05-07T12:12:41.250Z,25.80
2019-05-07T12:15:12.577Z,27.10
2019-05-07T12:17:43.635Z,28.10
2019-05-07T12:20:16.405Z,28.30
2019-05-07T12:22:47.975Z,27.90
2019-05-07T12:25:21.895Z,28.60
2019-05-07T12:27:54.877Z,28.20
2019-05-07T12:30:28.205Z,28.70
2019-05-07T12:32:58.876Z,28.70
2019-05-07T12:35:30.023Z,29.00
2019-05-07T12:38:02.070Z,28.80
2019-05-07T12:40:33.251Z,28.50
2019-05-07T12:43:04.227Z,28.20
2019-05-07T12:45:35.206Z,28.50
2019-05-07T12:48:06.256Z,28.80
2019-05-07T12:50:37.232Z,28.90
2019-05-07T12:53:08.063Z,28.20
2019-05-07T12:55:42.729Z,27.10
2019-05-07T12:58:13.239Z,27.70
2019-05-07T13:00:48.739Z,27.80
2019-05-07T13:03:22.432Z,29.00
2019-05-07T13:05:53.412Z,29.80
2019-05-07T13:08:24.554Z,29.80
2019-05-07T13:10:55.523Z,29.90
2019-05-07T13:13:26.464Z,28.80
2019-05-07T13:15:57.431Z,28.00
2019-05-07T13:18:28.372Z,28.30
2019-05-07T13:20:59.343Z,28.10
2019-05-07T13:23:31.849Z,27.10
2019-05-07T13:26:04.042Z,26.20
2019-05-07T13:28:35.047Z,25.90
2019-05-07T13:31:06.191Z,25.90
2019-05-07T13:33:37.876Z,25.70
2019-05-07T13:36:09.008Z,25.50
2019-05-07T13:38:51.915Z,25.50
2019-05-07T13:41:30.442Z,25.90
2019-05-07T13:44:06.168Z,25.70
2019-05-07T13:46:38.884Z,25.40
2019-05-07T13:49:09.857Z,26.00
2019-05-07T13:51:41.794Z,26.70
2019-05-07T13:54:12.978Z,26.50
2019-05-07T13:56:44.005Z,27.00
2019-05-07T13:59:15.488Z,26.40
2019-05-07T14:01:47.994Z,26.70
2019-05-07T14:04:18.969Z,27.10
2019-05-07T14:06:50.013Z,26.50
2019-05-07T14:09:24.307Z,25.90
2019-05-07T14:11:58.103Z,25.00
2019-05-07T14:14:29.169Z,23.70
2019-05-07T14:17:02.304Z,23.30
2019-05-07T14:19:34.185Z,23.00
2019-05-07T14:22:15.381Z,22.50
2019-05-07T14:24:38.916Z,22.60
2019-05-07T14:27:09.858Z,22.30
2019-05-07T14:29:42.424Z,22.20
2019-05-07T14:32:24.455Z,22.90
2019-05-07T14:35:15.131Z,23.10
2019-05-07T14:37:53.708Z,23.10
2019-05-07T14:40:25.109Z,22.90
2019-05-07T14:43:13.212Z,22.70
2019-05-07T14:45:44.388Z,23.70
2019-05-07T14:48:15.332Z,24.30
2019-05-07T14:50:46.413Z,24.70
2019-05-07T14:53:17.388Z,25.70
2019-05-07T14:55:48.549Z,25.60
2019-05-07T14:58:20.524Z,24.90
2019-05-07T15:00:51.898Z,24.20
2019-05-07T15:03:23.032Z,24.60
2019-05-07T15:05:54.128Z,24.80
2019-05-07T15:08:25.202Z,23.70
2019-05-07T15:10:56.265Z,23.70
2019-05-07T15:13:28.640Z,22.80
2019-05-07T15:16:02.939Z,22.10
2019-05-07T15:18:42.374Z,21.40
2019-05-07T15:21:14.211Z,21.80
2019-05-07T15:23:46.579Z,22.70
2019-05-07T15:26:17.528Z,24.20
2019-05-07T15:28:52.064Z,24.80
2019-05-07T15:31:27.259Z,25.40
2019-05-07T15:33:58.235Z,26.70
2019-05-07T15:36:29.180Z,27.30
2019-05-07T15:39:02.780Z,27.20
2019-05-07T15:41:34.852Z,27.10
2019-05-07T15:44:05.933Z,26.70
2019-05-07T15:46:36.885Z,25.70
2019-05-07T15:49:07.856Z,24.50
2019-05-07T15:51:38.796Z,24.90
2019-05-07T15:54:12.876Z,25.30
2019-05-07T15:56:44.061Z,24.90
2019-05-07T15:59:16.681Z,25.90
2019-05-07T16:01:47.624Z,26.60
2019-05-07T16:04:22.632Z,26.40
2019-05-07T16:06:52.801Z,26.60
2019-05-07T16:09:23.801Z,26.60
2019-05-07T16:11:54.751Z,26.30
2019-05-07T16:14:27.060Z,26.20
2019-05-07T16:16:59.723Z,26.00
2019-05-07T16:19:32.134Z,25.80
2019-05-07T16:22:04.804Z,25.80
2019-05-07T16:24:36.191Z,25.70
2019-05-07T16:27:07.138Z,25.70
2019-05-07T16:29:38.200Z,25.70
2019-05-07T16:32:09.147Z,25.70
2019-05-07T16:34:40.199Z,25.70
2019-05-07T16:37:12.322Z,25.50
2019-05-07T16:39:43.506Z,25.70
2019-05-07T16:42:14.459Z,25.00
2019-05-07T16:44:45.506Z,24.90
2019-05-07T16:47:16.500Z,24.70
2019-05-07T16:49:47.484Z,23.90
2019-05-07T16:52:18.501Z,23.70
2019-05-07T16:54:49.470Z,23.40
2019-05-07T16:57:23.729Z,23.30
2019-05-07T16:59:54.700Z,22.70
2019-05-07T17:02:27.240Z,22.00
2019-05-07T17:05:08.545Z,21.20
2019-05-07T17:07:43.833Z,20.00
2019-05-07T17:10:15.214Z,19.60
2019-05-07T17:12:47.894Z,19.20
2019-05-07T17:15:19.167Z,18.50
2019-05-07T17:17:51.721Z,17.90
2019-05-07T17:20:22.702Z,17.60
2019-05-07T17:22:53.793Z,17.10
2019-05-07T17:25:40.085Z,16.60
2019-05-07T17:28:12.603Z,16.20
2019-05-07T17:30:43.818Z,15.90
2019-05-07T17:33:15.057Z,15.70
2019-05-07T17:35:46.327Z,15.30
2019-05-07T17:38:17.325Z,14.80
2019-05-07T17:40:48.308Z,14.50
2019-05-07T17:43:19.313Z,14.30
2019-05-07T17:45:52.298Z,14.30
2019-05-07T17:48:23.454Z,14.20
2019-05-07T17:51:01.970Z,13.90
2019-05-07T17:53:32.902Z,13.70
2019-05-07T17:56:03.853Z,13.60
2019-05-07T17:58:34.848Z,13.40
2019-05-07T18:01:06.090Z,13.20
2019-05-07T18:03:38.375Z,13.10
2019-05-07T18:06:09.818Z,12.90
2019-05-07T18:08:40.864Z,12.80
2019-05-07T18:11:21.029Z,12.60
2019-05-07T18:13:44.480Z,12.40
2019-05-07T18:16:16.990Z,12.30
2019-05-07T18:18:47.970Z,12.20
2019-05-07T18:21:18.907Z,12.00
2019-05-07T18:23:51.620Z,11.80
2019-05-07T18:26:30.004Z,11.60
2019-05-07T18:28:55.380Z,11.50
2019-05-07T18:31:46.249Z,11.30
2019-05-07T18:34:17.227Z,11.20
2019-05-07T18:36:48.175Z,11.00
2019-05-07T18:39:20.399Z,10.90
2019-05-07T18:41:52.300Z,10.80
2019-05-07T18:44:23.422Z,10.60
2019-05-07T18:46:54.386Z,10.40
2019-05-07T18:49:25.447Z,10.20
2019-05-07T18:51:56.386Z,10.00
2019-05-07T18:54:31.218Z,9.90
2019-05-07T18:57:02.162Z,9.70
2019-05-07T18:59:34.233Z,9.60
2019-05-07T19:02:05.371Z,9.50
2019-05-07T19:04:36.331Z,9.30
2019-05-07T19:07:07.274Z,9.20
2019-05-07T19:09:38.242Z,9.10
2019-05-07T19:12:12.895Z,9.20
2019-05-07T19:14:43.411Z,9.00
2019-05-07T19:17:14.343Z,8.80
2019-05-07T19:19:45.306Z,8.60
2019-05-07T19:22:16.373Z,8.60
2019-05-07T19:24:48.275Z,8.50
2019-05-07T19:27:19.357Z,8.40
2019-05-07T19:29:50.340Z,8.20
2019-05-07T19:32:22.834Z,8.10
2019-05-07T19:34:54.424Z,8.00
2019-05-07T19:37:25.357Z,7.90
2019-05-07T19:39:56.324Z,7.80
2019-05-07T19:42:27.451Z,7.70
2019-05-07T19:44:58.432Z,7.80
2019-05-07T19:47:29.433Z,7.90
2019-05-07T19:50:02.117Z,8.00
2019-05-07T19:52:34.254Z,7.90
2019-05-07T19:55:06.526Z,7.90
2019-05-07T19:57:47.926Z,8.00
2019-05-07T20:00:19.820Z,8.00
2019-05-07T20:02:55.447Z,8.00
2019-05-07T20:05:26.470Z,8.00
2019-05-07T20:08:01.951Z,8.00
2019-05-07T20:10:33.015Z,7.80
2019-05-07T20:13:05.198Z,7.70
2019-05-07T20:15:37.935Z,7.60
2019-05-07T20:18:08.949Z,7.50
2019-05-07T20:20:39.884Z,7.50
2019-05-07T20:23:12.051Z,7.40
2019-05-07T20:25:44.115Z,7.30
2019-05-07T20:28:16.593Z,7.30
2019-05-07T20:30:47.714Z,7.20
2019-05-07T20:33:18.683Z,7.10
2019-05-07T20:35:49.669Z,7.00
2019-05-07T20:38:21.748Z,6.80
2019-05-07T20:40:52.686Z,6.70
2019-05-07T20:43:23.683Z,6.60
2019-05-07T20:45:54.688Z,6.70
2019-05-07T20:48:25.656Z,6.70
2019-05-07T20:50:56.595Z,6.50
2019-05-07T20:53:45.211Z,6.40
2019-05-07T20:56:17.824Z,6.40
2019-05-07T20:58:48.799Z,6.30
2019-05-07T21:01:21.819Z,6.10
2019-05-07T21:03:52.828Z,6.00
2019-05-07T21:06:23.831Z,5.90
2019-05-07T21:08:54.806Z,5.80
2019-05-07T21:11:25.730Z,5.80
2019-05-07T21:13:56.689Z,5.70
2019-05-07T21:16:27.634Z,5.50
2019-05-07T21:18:58.629Z,5.40
2019-05-07T21:21:29.567Z,5.30
2019-05-07T21:24:02.101Z,5.20
2019-05-07T21:26:33.242Z,5.20
2019-05-07T21:29:04.217Z,5.10
2019-05-07T21:31:35.147Z,5.10
2019-05-07T21:34:06.111Z,4.90
2019-05-07T21:36:37.085Z,4.80
2019-05-07T21:39:08.651Z,4.80
2019-05-07T21:41:39.618Z,4.80
2019-05-07T21:44:10.557Z,4.70
2019-05-07T21:46:42.597Z,4.70
2019-05-07T21:49:13.845Z,4.70
2019-05-07T21:51:44.821Z,4.60
2019-05-07T21:54:23.666Z,4.50
2019-05-07T21:57:12.836Z,4.40
2019-05-07T21:59:44.011Z,4.20
2019-05-07T22:02:22.956Z,4.10
2019-05-07T22:04:53.896Z,4.00
2019-05-07T22:07:24.897Z,3.90
2019-05-07T22:09:55.936Z,3.80
2019-05-07T22:12:26.906Z,3.70
2019-05-07T22:14:57.846Z,3.70
2019-05-07T22:17:28.822Z,3.70
2019-05-07T22:19:59.768Z,3.70
2019-05-07T22:22:31.981Z,3.60
2019-05-07T22:25:05.279Z,3.60
2019-05-07T22:27:37.447Z,3.50
2019-05-07T22:30:12.441Z,3.40
2019-05-07T22:32:44.026Z,3.40
2019-05-07T22:35:19.447Z,3.40
2019-05-07T22:38:00.807Z,3.30
2019-05-07T22:40:33.296Z,3.30
2019-05-07T22:43:05.817Z,3.20
2019-05-07T22:45:36.751Z,3.20
2019-05-07T22:48:07.720Z,3.20
2019-05-07T22:50:38.697Z,3.20
2019-05-07T22:53:12.594Z,3.10
2019-05-07T22:55:44.310Z,3.10
2019-05-07T22:58:29.072Z,3.10
2019-05-07T23:01:12.959Z,3.00
2019-05-07T23:03:43.498Z,2.90
2019-05-07T23:06:15.462Z,2.80
2019-05-07T23:08:46.482Z,2.80
2019-05-07T23:11:17.439Z,2.80
2019-05-07T23:13:48.422Z,2.80
2019-05-07T23:16:19.372Z,2.80
2019-05-07T23:18:51.445Z,2.70
2019-05-07T23:21:24.558Z,2.60
2019-05-07T23:23:55.230Z,2.60
2019-05-07T23:26:26.171Z,2.60
2019-05-07T23:28:58.747Z,2.60
2019-05-07T23:31:29.746Z,2.60
2019-05-07T23:34:01.902Z,2.60
2019-05-07T23:36:33.051Z,2.60
2019-05-07T23:39:05.534Z,2.70
2019-05-07T23:41:38.111Z,2.70
2019-05-07T23:44:13.401Z,2.70
2019-05-07T23:46:44.888Z,2.60
2019-05-07T23:49:16.391Z,2.60
2019-05-07T23:51:47.360Z,2.60
2019-05-07T23:54:18.334Z,2.70
2019-05-07T23:57:02.916Z,2.80
2019-05-07T23:59:22.358Z,3.00
